createdAt,value
2017-08-29T00:00:32.251Z,98.1
2017-08-29T00:01:33.705Z,98.3
2017-08-29T00:02:35.105Z,98.6
2017-08-29T00:03:36.510Z,98.7
2017-08-29T00:04:37.925Z,99.2
2017-08-29T00:05:39.322Z,98.8
2017-08-29T00:06:40.721Z,98.9
2017-08-29T00:07:42.143Z,98.1
2017-08-29T00:08:43.541Z,98.1
2017-08-29T00:09:44.940Z,97.8
2017-08-29T00:10:46.417Z,98.0
2017-08-29T00:11:47.819Z,98.1
2017-08-29T00:12:49.218Z,98.0
2017-08-29T00:13:50.684Z,97.9
2017-08-29T00:14:52.078Z,98.2
2017-08-29T00:15:53.562Z,98.2
2017-08-29T00:16:54.962Z,98.9
2017-08-29T00:17:56.440Z,98.9
2017-08-29T00:18:57.839Z,99.2
2017-08-29T00:19:59.239Z,99.4
2017-08-29T00:21:00.673Z,99.6
2017-08-29T00:22:02.075Z,100.0
2017-08-29T00:23:03.477Z,100.0
2017-08-29T00:24:04.983Z,100.0
2017-08-29T00:25:06.409Z,99.6
2017-08-29T00:26:07.864Z,99.2
2017-08-29T00:27:09.263Z,99.2
2017-08-29T00:28:10.744Z,98.8
2017-08-29T00:29:12.313Z,98.9
2017-08-29T00:30:13.713Z,98.8
2017-08-29T00:31:15.168Z,98.9
2017-08-29T00:32:16.566Z,98.9
2017-08-29T00:33:17.968Z,99.3
2017-08-29T00:34:19.389Z,98.8
2017-08-29T00:35:20.791Z,98.8
2017-08-29T00:36:22.301Z,99.0
2017-08-29T00:37:23.723Z,98.6
2017-08-29T00:38:25.147Z,98.3
2017-08-29T00:39:26.577Z,98.6
2017-08-29T00:40:27.982Z,98.8
2017-08-29T00:41:29.468Z,99.2
2017-08-29T00:42:30.874Z,99.2
2017-08-29T00:43:32.281Z,100.0
2017-08-29T00:44:33.788Z,99.2
2017-08-29T00:45:35.192Z,99.0
2017-08-29T00:46:36.699Z,98.8
2017-08-29T00:47:38.482Z,98.8
2017-08-29T00:48:39.960Z,98.1
2017-08-29T00:49:41.741Z,98.7
2017-08-29T00:50:43.252Z,98.3
2017-08-29T00:51:44.652Z,98.3
2017-08-29T00:52:46.132Z,98.5
2017-08-29T00:53:47.555Z,98.9
2017-08-29T00:54:49.013Z,98.9
2017-08-29T00:55:50.412Z,98.8
2017-08-29T00:56:51.891Z,98.9
2017-08-29T00:57:53.292Z,98.5
2017-08-29T00:58:54.769Z,99.2
2017-08-29T00:59:56.171Z,99.7
2017-08-29T01:00:57.656Z,98.7
2017-08-29T01:01:59.051Z,99.0
2017-08-29T01:03:00.535Z,99.5
2017-08-29T01:04:01.944Z,100.0
2017-08-29T01:05:03.335Z,100.0
2017-08-29T01:06:04.754Z,99.7
2017-08-29T01:07:06.153Z,100.0
2017-08-29T01:08:07.566Z,99.7
2017-08-29T01:09:09.074Z,98.8
2017-08-29T01:10:10.472Z,99.0
2017-08-29T01:11:11.872Z,98.8
2017-08-29T01:12:13.291Z,99.0
2017-08-29T01:13:14.693Z,99.2
2017-08-29T01:14:16.174Z,99.6
2017-08-29T01:15:17.571Z,99.1
2017-08-29T01:16:18.971Z,99.6
2017-08-29T01:17:20.390Z,99.7
2017-08-29T01:18:21.790Z,99.6
2017-08-29T01:19:23.190Z,99.5
2017-08-29T01:20:24.613Z,99.2
2017-08-29T01:21:26.009Z,98.9
2017-08-29T01:22:27.562Z,99.4
2017-08-29T01:23:28.969Z,99.5
2017-08-29T01:24:30.495Z,100.0
2017-08-29T01:25:31.894Z,100.0
2017-08-29T01:26:33.295Z,100.0
2017-08-29T01:27:34.796Z,100.0
2017-08-29T01:28:36.197Z,100.0
2017-08-29T01:29:37.598Z,99.7
2017-08-29T01:30:39.015Z,100.0
2017-08-29T01:31:40.414Z,100.0
2017-08-29T01:32:41.814Z,100.0
2017-08-29T01:33:43.233Z,100.0
2017-08-29T01:34:44.640Z,99.6
2017-08-29T01:35:46.037Z,99.3
2017-08-29T01:36:47.452Z,100.0
2017-08-29T01:37:48.851Z,100.0
2017-08-29T01:38:50.257Z,99.2
2017-08-29T01:39:51.668Z,99.7
2017-08-29T01:40:53.097Z,99.6
2017-08-29T01:41:54.504Z,99.8
2017-08-29T01:42:55.990Z,99.7
2017-08-29T01:43:57.388Z,99.3
2017-08-29T01:44:58.785Z,99.6
2017-08-29T01:46:00.214Z,99.5
2017-08-29T01:47:01.613Z,99.7
2017-08-29T01:48:03.019Z,99.9
2017-08-29T01:49:04.535Z,100.0
2017-08-29T01:50:05.933Z,100.0
2017-08-29T01:51:07.333Z,100.0
2017-08-29T01:52:08.767Z,100.0
2017-08-29T01:53:10.168Z,100.0
2017-08-29T01:54:11.567Z,100.0
2017-08-29T01:55:13.081Z,100.0
2017-08-29T01:56:14.504Z,100.0
2017-08-29T01:57:15.951Z,100.0
2017-08-29T01:58:17.349Z,100.0
2017-08-29T01:59:18.832Z,99.9
2017-08-29T02:00:20.230Z,99.5
2017-08-29T02:01:21.631Z,100.0
2017-08-29T02:02:23.052Z,100.0
2017-08-29T02:03:24.455Z,100.0
2017-08-29T02:04:25.852Z,99.5
2017-08-29T02:05:27.274Z,99.6
2017-08-29T02:06:28.717Z,99.5
2017-08-29T02:07:30.129Z,99.4
2017-08-29T02:08:31.609Z,100.0
2017-08-29T02:09:33.002Z,100.0
2017-08-29T02:10:34.490Z,99.7
2017-08-29T02:11:35.909Z,99.4
2017-08-29T02:12:37.312Z,99.2
2017-08-29T02:13:38.794Z,99.2
2017-08-29T02:14:40.183Z,99.8
2017-08-29T02:15:41.701Z,100.0
2017-08-29T02:16:43.092Z,100.0
2017-08-29T02:17:44.495Z,100.0
2017-08-29T02:18:45.994Z,100.0
2017-08-29T02:19:47.393Z,100.0
2017-08-29T02:20:48.822Z,100.0
2017-08-29T02:21:50.313Z,99.5
2017-08-29T02:22:51.714Z,99.8
2017-08-29T02:23:53.113Z,100.0
2017-08-29T02:24:54.542Z,100.0
2017-08-29T02:25:55.934Z,100.0
2017-08-29T02:26:57.333Z,100.0
2017-08-29T02:27:58.746Z,100.0
2017-08-29T02:29:00.153Z,100.0
2017-08-29T02:30:01.554Z,100.0
2017-08-29T02:31:02.971Z,100.0
2017-08-29T02:32:04.372Z,100.0
2017-08-29T02:33:05.891Z,100.0
2017-08-29T02:34:07.283Z,100.0
2017-08-29T02:35:08.734Z,100.0
2017-08-29T02:36:10.136Z,100.0
2017-08-29T02:37:11.536Z,100.0
2017-08-29T02:38:12.955Z,100.0
2017-08-29T02:39:14.354Z,100.0
2017-08-29T02:40:15.755Z,100.0
2017-08-29T02:41:17.172Z,100.0
2017-08-29T02:42:18.570Z,100.0
2017-08-29T02:43:19.967Z,100.0
2017-08-29T02:44:21.389Z,100.0
2017-08-29T02:45:22.787Z,100.0
2017-08-29T02:46:24.188Z,100.0
2017-08-29T02:47:25.608Z,100.0
2017-08-29T02:48:27.004Z,100.0
2017-08-29T02:49:28.424Z,100.0
2017-08-29T02:50:29.940Z,100.0
2017-08-29T02:51:31.337Z,100.0
2017-08-29T02:52:32.778Z,100.0
2017-08-29T02:53:34.253Z,100.0
2017-08-29T02:54:35.654Z,100.0
2017-08-29T02:55:37.052Z,100.0
2017-08-29T02:56:38.470Z,100.0
2017-08-29T02:57:39.866Z,100.0
2017-08-29T02:58:41.354Z,100.0
2017-08-29T02:59:42.760Z,100.0
2017-08-29T03:00:44.232Z,100.0
2017-08-29T03:01:45.632Z,100.0
2017-08-29T03:02:47.109Z,100.0
2017-08-29T03:03:48.506Z,100.0
2017-08-29T03:04:49.990Z,100.0
2017-08-29T03:05:51.397Z,100.0
2017-08-29T03:06:52.827Z,100.0
2017-08-29T03:07:54.310Z,100.0
2017-08-29T03:08:55.794Z,100.0
2017-08-29T03:09:57.190Z,100.0
2017-08-29T03:10:58.633Z,100.0
2017-08-29T03:12:00.031Z,100.0
2017-08-29T03:13:01.434Z,100.0
2017-08-29T03:14:02.862Z,100.0
2017-08-29T03:15:04.258Z,100.0
2017-08-29T03:16:05.662Z,100.0
2017-08-29T03:17:07.172Z,100.0
2017-08-29T03:18:08.594Z,100.0
2017-08-29T03:19:10.053Z,100.0
2017-08-29T03:20:11.500Z,99.9
2017-08-29T03:21:12.935Z,100.0
2017-08-29T03:22:14.333Z,99.7
2017-08-29T03:23:15.814Z,99.8
2017-08-29T03:24:17.623Z,100.0
2017-08-29T03:25:19.105Z,99.5
2017-08-29T03:26:20.503Z,100.0
2017-08-29T03:27:21.985Z,100.0
2017-08-29T03:28:23.387Z,100.0
2017-08-29T03:29:24.864Z,100.0
2017-08-29T03:30:26.265Z,100.0
2017-08-29T03:31:27.745Z,100.0
2017-08-29T03:32:29.144Z,100.0
2017-08-29T03:33:30.540Z,100.0
2017-08-29T03:34:31.967Z,100.0
2017-08-29T03:35:33.374Z,100.0
2017-08-29T03:36:34.778Z,100.0
2017-08-29T03:37:36.319Z,100.0
2017-08-29T03:38:37.716Z,100.0
2017-08-29T03:39:39.116Z,99.4
2017-08-29T03:40:41.534Z,99.5
2017-08-29T03:41:42.965Z,100.0
2017-08-29T03:42:44.385Z,99.8
2017-08-29T03:43:45.849Z,99.7
2017-08-29T03:44:47.248Z,99.4
2017-08-29T03:45:48.644Z,99.3
2017-08-29T03:46:50.066Z,99.4
2017-08-29T03:47:51.466Z,100.0
2017-08-29T03:48:52.945Z,100.0
2017-08-29T03:49:54.349Z,100.0
2017-08-29T03:50:55.840Z,100.0
2017-08-29T03:51:57.237Z,100.0
2017-08-29T03:52:58.638Z,100.0
2017-08-29T03:54:00.150Z,100.0
2017-08-29T03:55:01.549Z,99.9
2017-08-29T03:56:02.945Z,100.0
2017-08-29T03:57:04.368Z,100.0
2017-08-29T03:58:05.770Z,100.0
2017-08-29T03:59:07.546Z,100.0
2017-08-29T04:00:09.013Z,100.0
2017-08-29T04:01:10.401Z,99.5
2017-08-29T04:02:11.804Z,100.0
2017-08-29T04:03:13.317Z,99.6
2017-08-29T04:04:14.717Z,99.8
2017-08-29T04:05:16.118Z,100.0
2017-08-29T04:06:17.537Z,100.0
2017-08-29T04:07:18.934Z,100.0
2017-08-29T04:08:20.331Z,99.5
2017-08-29T04:09:21.753Z,100.0
2017-08-29T04:10:23.155Z,100.0
2017-08-29T04:11:24.636Z,100.0
2017-08-29T04:12:26.037Z,100.0
2017-08-29T04:13:27.516Z,100.0
2017-08-29T04:14:28.918Z,100.0
2017-08-29T04:15:30.397Z,100.0
2017-08-29T04:16:31.799Z,100.0
2017-08-29T04:17:33.197Z,100.0
2017-08-29T04:18:34.618Z,100.0
2017-08-29T04:19:36.018Z,100.0
2017-08-29T04:20:37.419Z,100.0
2017-08-29T04:21:38.936Z,100.0
2017-08-29T04:22:40.339Z,100.0
2017-08-29T04:23:41.738Z,99.9
2017-08-29T04:24:43.161Z,100.0
2017-08-29T04:25:44.569Z,100.0
2017-08-29T04:26:45.970Z,100.0
2017-08-29T04:27:47.477Z,100.0
2017-08-29T04:28:48.913Z,100.0
2017-08-29T04:29:52.282Z,100.0
2017-08-29T04:30:53.741Z,99.4
2017-08-29T04:31:55.143Z,100.0
2017-08-29T04:32:56.541Z,99.9
2017-08-29T04:33:57.963Z,100.0
2017-08-29T04:34:59.364Z,100.0
2017-08-29T04:36:00.844Z,100.0
2017-08-29T04:37:02.245Z,100.0
2017-08-29T04:38:03.730Z,100.0
2017-08-29T04:39:05.126Z,100.0
2017-08-29T04:40:06.604Z,100.0
2017-08-29T04:41:08.007Z,100.0
2017-08-29T04:42:09.486Z,100.0
2017-08-29T04:43:10.887Z,100.0
2017-08-29T04:44:12.286Z,100.0
2017-08-29T04:45:13.704Z,100.0
2017-08-29T04:46:15.105Z,100.0
2017-08-29T04:47:16.506Z,100.0
2017-08-29T04:48:17.929Z,100.0
2017-08-29T04:49:19.389Z,100.0
2017-08-29T04:50:20.775Z,100.0
2017-08-29T04:51:22.244Z,100.0
2017-08-29T04:52:23.643Z,100.0
2017-08-29T04:53:27.309Z,100.0
2017-08-29T04:54:28.818Z,100.0
2017-08-29T04:55:30.232Z,100.0
2017-08-29T04:56:31.698Z,100.0
2017-08-29T04:57:33.101Z,100.0
2017-08-29T04:58:34.580Z,100.0
2017-08-29T04:59:36.014Z,100.0
2017-08-29T05:00:37.461Z,100.0
2017-08-29T05:01:38.871Z,100.0
2017-08-29T05:02:40.272Z,100.0
2017-08-29T05:03:41.813Z,100.0
2017-08-29T05:04:43.211Z,100.0
2017-08-29T05:05:44.614Z,100.0
2017-08-29T05:06:46.107Z,100.0
2017-08-29T05:07:47.515Z,100.0
2017-08-29T05:08:49.324Z,100.0
2017-08-29T05:09:50.835Z,100.0
2017-08-29T05:10:52.238Z,100.0
2017-08-29T05:11:53.715Z,100.0
2017-08-29T05:12:55.119Z,100.0
2017-08-29T05:13:56.594Z,100.0
2017-08-29T05:14:57.999Z,100.0
2017-08-29T05:15:59.482Z,100.0
2017-08-29T05:17:00.881Z,100.0
2017-08-29T05:18:02.355Z,100.0
2017-08-29T05:19:03.761Z,100.0
2017-08-29T05:20:05.237Z,100.0
2017-08-29T05:21:06.643Z,100.0
2017-08-29T05:22:08.123Z,100.0
2017-08-29T05:23:09.518Z,100.0
2017-08-29T05:24:10.937Z,100.0
2017-08-29T05:25:12.441Z,100.0
2017-08-29T05:26:13.845Z,100.0
2017-08-29T05:27:15.243Z,100.0
2017-08-29T05:28:16.657Z,100.0
2017-08-29T05:29:18.070Z,100.0
2017-08-29T05:30:19.471Z,100.0
2017-08-29T05:31:20.979Z,100.0
2017-08-29T05:32:22.396Z,100.0
2017-08-29T05:33:23.798Z,100.0
2017-08-29T05:34:25.300Z,100.0
2017-08-29T05:35:27.109Z,100.0
2017-08-29T05:36:28.458Z,100.0
2017-08-29T05:37:29.928Z,100.0
2017-08-29T05:38:31.333Z,100.0
2017-08-29T05:39:32.736Z,100.0
2017-08-29T05:40:34.250Z,100.0
2017-08-29T05:41:35.651Z,100.0
2017-08-29T05:42:37.133Z,100.0
2017-08-29T05:43:38.531Z,100.0
2017-08-29T05:44:39.936Z,100.0
2017-08-29T05:45:41.451Z,100.0
2017-08-29T05:46:42.855Z,100.0
2017-08-29T05:47:44.257Z,100.0
2017-08-29T05:48:45.772Z,100.0
2017-08-29T05:49:47.176Z,100.0
2017-08-29T05:50:48.987Z,100.0
2017-08-29T05:51:52.297Z,100.0
2017-08-29T05:52:53.700Z,100.0
2017-08-29T05:53:55.104Z,100.0
2017-08-29T05:54:56.565Z,100.0
2017-08-29T05:55:57.966Z,100.0
2017-08-29T05:56:59.440Z,100.0
2017-08-29T05:58:00.848Z,100.0
2017-08-29T05:59:02.251Z,100.0
2017-08-29T06:00:03.787Z,100.0
2017-08-29T06:01:05.191Z,100.0
2017-08-29T06:02:06.592Z,100.0
2017-08-29T06:03:08.086Z,100.0
2017-08-29T06:04:09.489Z,100.0
2017-08-29T06:05:10.892Z,100.0
2017-08-29T06:06:12.408Z,100.0
2017-08-29T06:07:13.814Z,100.0
2017-08-29T06:08:15.216Z,100.0
2017-08-29T06:09:16.728Z,100.0
2017-08-29T06:10:18.130Z,100.0
2017-08-29T06:11:19.531Z,100.0
2017-08-29T06:12:20.948Z,100.0
2017-08-29T06:13:22.351Z,100.0
2017-08-29T06:14:23.754Z,100.0
2017-08-29T06:15:25.269Z,100.0
2017-08-29T06:16:26.670Z,100.0
2017-08-29T06:17:28.071Z,100.0
2017-08-29T06:18:29.487Z,100.0
2017-08-29T06:19:30.892Z,100.0
2017-08-29T06:20:32.310Z,100.0
2017-08-29T06:21:33.809Z,100.0
2017-08-29T06:22:35.214Z,100.0
2017-08-29T06:23:36.614Z,100.0
2017-08-29T06:24:38.131Z,100.0
2017-08-29T06:25:39.535Z,100.0
2017-08-29T06:26:41.021Z,100.0
2017-08-29T06:27:42.428Z,100.0
2017-08-29T06:28:43.890Z,100.0
2017-08-29T06:29:45.296Z,100.0
2017-08-29T06:30:46.697Z,100.0
2017-08-29T06:31:48.212Z,100.0
2017-08-29T06:32:49.613Z,100.0
2017-08-29T06:33:51.014Z,100.0
2017-08-29T06:34:53.486Z,100.0
2017-08-29T06:35:54.890Z,100.0
2017-08-29T06:36:56.334Z,100.0
2017-08-29T06:37:57.737Z,100.0
2017-08-29T06:38:59.141Z,100.0
2017-08-29T06:40:00.543Z,100.0
2017-08-29T06:41:01.997Z,100.0
2017-08-29T06:42:03.400Z,100.0
2017-08-29T06:43:04.874Z,100.0
2017-08-29T06:44:06.279Z,100.0
2017-08-29T06:45:07.756Z,100.0
2017-08-29T06:46:09.156Z,100.0
2017-08-29T06:47:10.639Z,100.0
2017-08-29T06:48:12.038Z,100.0
2017-08-29T06:49:13.516Z,100.0
2017-08-29T06:50:14.921Z,100.0
2017-08-29T06:51:16.395Z,100.0
2017-08-29T06:52:17.796Z,100.0
2017-08-29T06:53:19.283Z,100.0
2017-08-29T06:54:20.688Z,100.0
2017-08-29T06:55:22.087Z,100.0
2017-08-29T06:56:23.598Z,100.0
2017-08-29T06:57:25.003Z,100.0
2017-08-29T06:58:26.406Z,100.0
2017-08-29T06:59:27.921Z,100.0
2017-08-29T07:00:29.320Z,100.0
2017-08-29T07:01:30.800Z,100.0
2017-08-29T07:02:32.214Z,100.0
2017-08-29T07:03:33.710Z,100.0
2017-08-29T07:04:35.113Z,100.0
2017-08-29T07:05:36.561Z,100.0
2017-08-29T07:06:37.977Z,100.0
2017-08-29T07:07:39.442Z,100.0
2017-08-29T07:08:40.847Z,100.0
2017-08-29T07:09:42.252Z,100.0
2017-08-29T07:10:43.764Z,100.0
2017-08-29T07:11:45.172Z,100.0
2017-08-29T07:12:46.578Z,100.0
2017-08-29T07:13:48.086Z,100.0
2017-08-29T07:14:49.491Z,100.0
2017-08-29T07:15:50.894Z,100.0
2017-08-29T07:16:52.407Z,100.0
2017-08-29T07:17:53.812Z,100.0
2017-08-29T07:18:55.216Z,100.0
2017-08-29T07:19:56.729Z,100.0
2017-08-29T07:20:58.131Z,100.0
2017-08-29T07:21:59.609Z,100.0
2017-08-29T07:23:01.015Z,100.0
2017-08-29T07:24:02.490Z,100.0
2017-08-29T07:25:03.897Z,100.0
2017-08-29T07:26:05.300Z,100.0
2017-08-29T07:27:06.811Z,100.0
2017-08-29T07:28:08.216Z,100.0
2017-08-29T07:29:09.650Z,100.0
2017-08-29T07:30:11.133Z,100.0
2017-08-29T07:31:12.540Z,100.0
2017-08-29T07:32:14.013Z,100.0
2017-08-29T07:33:15.422Z,100.0
2017-08-29T07:34:16.901Z,100.0
2017-08-29T07:35:18.298Z,100.0
2017-08-29T07:36:19.805Z,100.0
2017-08-29T07:37:21.204Z,100.0
2017-08-29T07:38:22.655Z,100.0
2017-08-29T07:39:24.059Z,100.0
2017-08-29T07:40:25.538Z,100.0
2017-08-29T07:41:26.947Z,100.0
2017-08-29T07:42:28.425Z,100.0
2017-08-29T07:43:29.832Z,100.0
2017-08-29T07:44:31.239Z,100.0
2017-08-29T07:45:32.766Z,100.0
2017-08-29T07:46:34.170Z,100.0
2017-08-29T07:47:35.576Z,100.0
2017-08-29T07:48:37.062Z,100.0
2017-08-29T07:49:38.464Z,100.0
2017-08-29T07:50:39.872Z,100.0
2017-08-29T07:51:41.382Z,100.0
2017-08-29T07:52:42.794Z,100.0
2017-08-29T07:53:44.262Z,100.0
2017-08-29T07:54:45.670Z,100.0
2017-08-29T07:55:47.143Z,100.0
2017-08-29T07:56:48.549Z,100.0
2017-08-29T07:57:50.023Z,100.0
2017-08-29T07:58:51.429Z,100.0
2017-08-29T07:59:52.904Z,100.0
2017-08-29T08:00:54.310Z,100.0
2017-08-29T08:01:55.717Z,100.0
2017-08-29T08:02:57.223Z,100.0
2017-08-29T08:03:58.631Z,100.0
2017-08-29T08:05:00.036Z,100.0
2017-08-29T08:06:01.543Z,100.0
2017-08-29T08:07:02.948Z,100.0
2017-08-29T08:08:04.356Z,100.0
2017-08-29T08:09:05.865Z,100.0
2017-08-29T08:10:07.270Z,100.0
2017-08-29T08:11:08.694Z,100.0
2017-08-29T08:12:10.186Z,100.0
2017-08-29T08:13:11.592Z,100.0
2017-08-29T08:14:13.065Z,100.0
2017-08-29T08:15:14.489Z,100.0
2017-08-29T08:16:15.900Z,100.0
2017-08-29T08:17:17.394Z,100.0
2017-08-29T08:18:18.820Z,100.0
2017-08-29T08:19:20.238Z,100.0
2017-08-29T08:20:21.731Z,100.0
2017-08-29T08:21:23.136Z,100.0
2017-08-29T08:22:24.542Z,100.0
2017-08-29T08:23:26.032Z,100.0
2017-08-29T08:24:27.440Z,100.0
2017-08-29T08:25:28.849Z,100.0
2017-08-29T08:26:30.351Z,100.0
2017-08-29T08:27:31.757Z,100.0
2017-08-29T08:28:33.232Z,100.0
2017-08-29T08:29:34.640Z,100.0
2017-08-29T08:30:36.046Z,100.0
2017-08-29T08:31:37.556Z,100.0
2017-08-29T08:32:38.965Z,100.0
2017-08-29T08:33:40.370Z,100.0
2017-08-29T08:34:41.879Z,100.0
2017-08-29T08:35:43.281Z,100.0
2017-08-29T08:36:44.687Z,100.0
2017-08-29T08:37:46.208Z,100.0
2017-08-29T08:38:47.999Z,100.0
2017-08-29T08:39:49.485Z,100.0
2017-08-29T08:40:50.890Z,100.0
2017-08-29T08:41:52.299Z,100.0
2017-08-29T08:42:53.712Z,97.5
2017-08-29T08:43:55.111Z,98.3
2017-08-29T08:44:56.586Z,97.1
2017-08-29T08:45:57.990Z,97.5
2017-08-29T08:46:59.463Z,98.8
2017-08-29T08:48:00.867Z,97.0
2017-08-29T08:49:02.345Z,97.6
2017-08-29T08:50:03.750Z,97.3
2017-08-29T08:51:05.224Z,98.3
2017-08-29T08:52:06.641Z,98.3
2017-08-29T08:53:08.104Z,98.5
2017-08-29T08:54:09.510Z,98.0
2017-08-29T08:55:10.985Z,98.7
2017-08-29T08:56:12.390Z,98.0
2017-08-29T08:57:13.798Z,97.0
2017-08-29T08:58:15.307Z,95.7
2017-08-29T08:59:16.714Z,96.6
2017-08-29T09:00:18.122Z,91.8
2017-08-29T09:01:19.651Z,92.2
2017-08-29T09:02:21.057Z,93.5
2017-08-29T09:03:22.467Z,94.8
2017-08-29T09:04:23.950Z,95.0
2017-08-29T09:05:25.369Z,96.0
2017-08-29T09:06:26.799Z,96.0
2017-08-29T09:07:28.278Z,95.2
2017-08-29T09:08:29.681Z,94.3
2017-08-29T09:09:31.152Z,94.2
2017-08-29T09:10:32.558Z,92.5
2017-08-29T09:11:34.032Z,94.3
2017-08-29T09:12:35.483Z,94.9
2017-08-29T09:13:36.912Z,93.9
2017-08-29T09:14:38.321Z,91.4
2017-08-29T09:15:39.897Z,89.6
2017-08-29T09:16:41.306Z,88.8
2017-08-29T09:17:42.776Z,87.0
2017-08-29T09:18:44.216Z,88.9
2017-08-29T09:19:45.658Z,87.6
2017-08-29T09:20:47.071Z,85.9
2017-08-29T09:21:48.536Z,88.4
2017-08-29T09:22:49.944Z,86.5
2017-08-29T09:23:51.418Z,88.8
2017-08-29T09:24:52.831Z,87.2
2017-08-29T09:25:54.296Z,87.9
2017-08-29T09:26:55.705Z,85.3
2017-08-29T09:27:57.179Z,87.1
2017-08-29T09:28:58.590Z,88.5
2017-08-29T09:30:00.157Z,88.6
2017-08-29T09:31:01.563Z,88.1
2017-08-29T09:32:03.042Z,87.1
2017-08-29T09:33:04.450Z,85.3
2017-08-29T09:34:05.923Z,86.1
2017-08-29T09:35:07.334Z,86.6
2017-08-29T09:36:08.803Z,84.1
2017-08-29T09:37:10.212Z,84.4
2017-08-29T09:38:11.684Z,80.7
2017-08-29T09:39:13.094Z,81.3
2017-08-29T09:40:14.566Z,85.7
2017-08-29T09:41:15.978Z,84.4
2017-08-29T09:42:17.453Z,84.2
2017-08-29T09:43:18.855Z,84.5
2017-08-29T09:44:20.340Z,85.4
2017-08-29T09:45:21.747Z,84.9
2017-08-29T09:46:23.216Z,85.5
2017-08-29T09:47:24.626Z,83.9
2017-08-29T09:48:26.116Z,84.5
2017-08-29T09:49:27.519Z,83.7
2017-08-29T09:50:29.011Z,81.7
2017-08-29T09:51:30.383Z,80.8
2017-08-29T09:52:31.793Z,82.9
2017-08-29T09:53:33.291Z,84.3
2017-08-29T09:54:34.701Z,83.2
2017-08-29T09:55:36.117Z,82.6
2017-08-29T09:56:37.610Z,83.7
2017-08-29T09:57:39.022Z,77.9
2017-08-29T09:58:40.511Z,78.3
2017-08-29T09:59:41.920Z,80.6
2017-08-29T10:00:43.371Z,80.7
2017-08-29T10:01:44.782Z,80.3
2017-08-29T10:02:46.194Z,77.0
2017-08-29T10:03:47.693Z,77.9
2017-08-29T10:04:49.103Z,79.0
2017-08-29T10:05:50.516Z,79.5
2017-08-29T10:06:52.014Z,80.0
2017-08-29T10:07:53.424Z,80.9
2017-08-29T10:08:54.895Z,80.9
2017-08-29T10:09:56.307Z,80.3
2017-08-29T10:10:57.774Z,78.7
2017-08-29T10:11:59.178Z,78.0
2017-08-29T10:13:00.695Z,78.6
2017-08-29T10:14:02.199Z,77.5
2017-08-29T10:15:03.618Z,76.8
2017-08-29T10:16:05.037Z,73.8
2017-08-29T10:17:06.520Z,71.2
2017-08-29T10:18:07.930Z,72.7
2017-08-29T10:19:09.356Z,74.6
2017-08-29T10:20:10.840Z,73.1
2017-08-29T10:21:12.251Z,71.6
2017-08-29T10:22:13.665Z,72.0
2017-08-29T10:23:15.161Z,72.6
2017-08-29T10:24:16.572Z,72.1
2017-08-29T10:25:17.987Z,71.6
2017-08-29T10:26:19.483Z,71.5
2017-08-29T10:27:20.962Z,72.5
2017-08-29T10:28:22.376Z,70.6
2017-08-29T10:29:23.803Z,69.0
2017-08-29T10:30:25.212Z,68.7
2017-08-29T10:31:26.685Z,68.5
2017-08-29T10:32:28.100Z,69.0
2017-08-29T10:33:29.512Z,68.9
2017-08-29T10:34:30.924Z,67.4
2017-08-29T10:35:32.367Z,66.3
2017-08-29T10:36:33.804Z,64.8
2017-08-29T10:37:35.213Z,64.1
2017-08-29T10:38:36.625Z,65.1
2017-08-29T10:39:38.106Z,66.0
2017-08-29T10:40:39.531Z,63.8
2017-08-29T10:41:40.974Z,64.6
2017-08-29T10:42:42.427Z,65.2
2017-08-29T10:43:43.854Z,65.0
2017-08-29T10:44:45.267Z,63.9
2017-08-29T10:45:46.748Z,64.4
2017-08-29T10:46:48.159Z,64.3
2017-08-29T10:47:49.574Z,62.9
2017-08-29T10:48:51.068Z,62.1
2017-08-29T10:49:52.481Z,60.9
2017-08-29T10:50:53.896Z,58.7
2017-08-29T10:51:55.389Z,59.6
2017-08-29T10:52:56.803Z,57.2
2017-08-29T10:53:58.216Z,56.8
2017-08-29T10:54:59.711Z,56.3
2017-08-29T10:56:01.162Z,55.1
2017-08-29T10:57:02.576Z,55.1
2017-08-29T10:58:04.029Z,53.0
2017-08-29T10:59:05.474Z,53.6
2017-08-29T11:00:06.914Z,54.0
2017-08-29T11:01:08.327Z,53.5
2017-08-29T11:02:09.757Z,48.8
2017-08-29T11:03:11.232Z,50.8
2017-08-29T11:04:12.643Z,48.7
2017-08-29T11:05:14.072Z,50.4
2017-08-29T11:06:15.553Z,51.8
2017-08-29T11:07:16.969Z,49.2
2017-08-29T11:08:18.382Z,46.4
2017-08-29T11:09:20.917Z,46.1
2017-08-29T11:10:22.334Z,46.9
2017-08-29T11:11:23.851Z,48.7
2017-08-29T11:12:25.323Z,47.4
2017-08-29T11:13:26.737Z,48.7
2017-08-29T11:14:28.152Z,49.7
2017-08-29T11:15:29.644Z,50.4
2017-08-29T11:16:31.057Z,50.8
2017-08-29T11:17:32.473Z,51.6
2017-08-29T11:18:33.964Z,53.9
2017-08-29T11:19:35.382Z,50.6
2017-08-29T11:20:36.795Z,52.1
2017-08-29T11:21:38.286Z,51.0
2017-08-29T11:22:39.700Z,49.6
2017-08-29T11:23:41.164Z,48.4
2017-08-29T11:24:42.607Z,49.0
2017-08-29T11:25:44.019Z,48.7
2017-08-29T11:26:45.488Z,47.2
2017-08-29T11:27:46.905Z,46.4
2017-08-29T11:28:48.341Z,47.2
2017-08-29T11:29:49.808Z,46.7
2017-08-29T11:30:51.227Z,47.4
2017-08-29T11:31:52.636Z,47.1
2017-08-29T11:32:54.178Z,47.6
2017-08-29T11:33:55.591Z,46.7
2017-08-29T11:34:57.009Z,47.0
2017-08-29T11:35:58.449Z,47.4
2017-08-29T11:36:59.867Z,47.6
2017-08-29T11:38:01.282Z,46.1
2017-08-29T11:39:02.771Z,47.2
2017-08-29T11:40:04.183Z,48.0
2017-08-29T11:41:05.598Z,47.3
2017-08-29T11:42:07.092Z,48.0
2017-08-29T11:43:08.508Z,48.4
2017-08-29T11:44:09.920Z,49.4
2017-08-29T11:45:11.421Z,49.2
2017-08-29T11:46:12.831Z,48.3
2017-08-29T11:47:14.248Z,49.2
2017-08-29T11:48:15.735Z,49.4
2017-08-29T11:49:17.150Z,48.6
2017-08-29T11:50:18.567Z,47.6
2017-08-29T11:51:20.056Z,47.8
2017-08-29T11:52:21.474Z,47.7
2017-08-29T11:53:22.891Z,46.7
2017-08-29T11:54:24.411Z,45.3
2017-08-29T11:55:25.802Z,43.2
2017-08-29T11:56:27.258Z,43.3
2017-08-29T11:57:28.673Z,42.6
2017-08-29T11:58:30.444Z,42.0
2017-08-29T11:59:31.853Z,36.1
2017-08-29T12:00:33.269Z,37.0
2017-08-29T12:01:34.765Z,36.7
2017-08-29T12:02:36.179Z,37.3
2017-08-29T12:03:37.599Z,34.4
2017-08-29T12:04:39.090Z,34.5
2017-08-29T12:05:40.502Z,35.7
2017-08-29T12:06:41.990Z,37.3
2017-08-29T12:07:43.398Z,38.3
2017-08-29T12:08:44.846Z,38.1
2017-08-29T12:09:46.258Z,38.6
2017-08-29T12:10:47.729Z,41.4
2017-08-29T12:11:49.142Z,42.2
2017-08-29T12:12:50.608Z,43.2
2017-08-29T12:13:52.020Z,42.6
2017-08-29T12:14:53.704Z,43.4
2017-08-29T12:15:55.106Z,43.9
2017-08-29T12:16:56.575Z,45.1
2017-08-29T12:17:57.989Z,45.4
2017-08-29T12:18:59.414Z,44.7
2017-08-29T12:20:00.898Z,44.0
2017-08-29T12:21:02.313Z,42.7
2017-08-29T12:22:03.731Z,40.8
2017-08-29T12:23:05.217Z,42.8
2017-08-29T12:24:06.633Z,43.2
2017-08-29T12:25:08.098Z,41.9
2017-08-29T12:26:09.510Z,40.7
2017-08-29T12:27:10.980Z,39.3
2017-08-29T12:28:12.393Z,37.6
2017-08-29T12:29:13.860Z,37.1
2017-08-29T12:30:15.272Z,37.0
2017-08-29T12:31:16.741Z,37.2
2017-08-29T12:32:18.155Z,37.0
2017-08-29T12:33:19.620Z,36.1
2017-08-29T12:34:21.037Z,33.7
2017-08-29T12:35:22.527Z,33.2
2017-08-29T12:36:24.045Z,32.3
2017-08-29T12:37:25.458Z,30.8
2017-08-29T12:38:26.870Z,33.0
2017-08-29T12:39:28.290Z,34.9
2017-08-29T12:40:29.701Z,36.1
2017-08-29T12:41:31.118Z,35.2
2017-08-29T12:42:32.583Z,33.5
2017-08-29T12:43:34.018Z,32.9
2017-08-29T12:44:35.424Z,33.0
2017-08-29T12:45:36.924Z,32.6
2017-08-29T12:46:38.318Z,33.9
2017-08-29T12:47:39.726Z,36.9
2017-08-29T12:48:41.227Z,36.0
2017-08-29T12:49:42.661Z,36.8
2017-08-29T12:50:44.109Z,38.8
2017-08-29T12:51:45.518Z,39.7
2017-08-29T12:52:46.987Z,39.3
2017-08-29T12:53:48.398Z,39.7
2017-08-29T12:54:49.816Z,39.4
2017-08-29T12:55:51.308Z,34.7
2017-08-29T12:56:52.719Z,34.3
2017-08-29T12:57:54.130Z,35.3
2017-08-29T12:58:55.632Z,35.2
2017-08-29T12:59:57.042Z,33.4
2017-08-29T13:00:58.459Z,33.2
2017-08-29T13:01:59.881Z,34.4
2017-08-29T13:03:01.390Z,35.2
2017-08-29T13:04:02.800Z,36.0
2017-08-29T13:05:04.271Z,35.4
2017-08-29T13:06:05.685Z,35.8
2017-08-29T13:07:07.151Z,37.0
2017-08-29T13:08:08.563Z,37.0
2017-08-29T13:09:09.975Z,35.4
2017-08-29T13:10:11.582Z,34.9
2017-08-29T13:11:12.998Z,33.1
2017-08-29T13:12:14.406Z,32.7
2017-08-29T13:13:15.895Z,34.0
2017-08-29T13:14:17.308Z,36.0
2017-08-29T13:15:18.715Z,38.1
2017-08-29T13:16:20.218Z,39.1
2017-08-29T13:17:21.632Z,39.5
2017-08-29T13:18:23.102Z,39.6
2017-08-29T13:19:24.511Z,40.5
2017-08-29T13:20:25.978Z,39.2
2017-08-29T13:21:27.385Z,41.6
2017-08-29T13:22:28.858Z,43.1
2017-08-29T13:23:30.270Z,43.3
2017-08-29T13:24:31.739Z,45.1